Angler Guide Weather for Winnipeg -
Winnipeg, Manitoba Current Weather Conditions
Enter your "Place, State", US Zip Code or ICAO:  
Forecast Information Radar Information
Winnipeg, Manitoba, Canada  Lat: 49.90N, Lon: 97.23W
ICAO Used: CYPG
Current Conditions
Updated:
Sun & Moon Information:
Temp: N/A
Humidity: N/A
Wind Speed: N/A
Barometer: N/A
Dewpoint: N/A
Heat Index: N/A
Wind Chill: N/A
Civil Twilight: 7:41 AM CST
Moonrise: 5:28 AM CST Moon Phase:
Waning Crescent Moon
Waning Crescent Moon
Moonset: 3:24 PM CST
Sunrise: 8:19 AM CST
Sunset: 4:27 PM CST
Civil Twilight: 5:05 PM CST
Forecast for Winnipeg, MB:
(Forecast based on TAF for )
1130 AM CST MON NOV 06 2006
  
AFTERNOONEVENINGOVERNIGHTMORNING
OVERCASTOVERCASTOVERCASTOVERCAST
OvercastOvercastOvercastOvercast
TAF based forecast:
Dated: 1130 AM CST MON NOV 06 2006
Afternoon...Overcast with winds variable at 3 mph. Possible periods of overcast.
Evening...Overcast with winds variable at 3 mph.
Overnight...Overcast with winds variable at 3 mph.
Morning...Overcast with winds variable at 3 mph.
Original Encoded TAF:
Dated: 1130 AM CST MON NOV 06 2006
2006/11/06 17:30
CYPG 061730Z 061823 VRB03KT P6SM OVC010 TEMPO 1823 OVC007=




Powered by Angler Guide.com
Copyright 2007, all rights reserved.